Flight Track Log - Related Links

Times and Time Zones

All times are in EDT time to prevent confusion due to time zone crossing. See the N53685 flight status page for this flight to view local times or setup timezone preferences in your user account.


Time Position Orientation Groundspeed Altitude Reporting Facility
EDT Latitude Longitude Course Direction KTS MPH feet Rate Location/Type
Wed 04:48:49 PM 27.5294 -99.4561 16° North 95 109 1,100  Level Houston Center
Wed 04:49:52 PM 27.5319 -99.4231 85° East 103 119 1,800 576 Climbing Houston Center
Wed 04:50:54 PM 27.5533 -99.3911 53° Northeast 119 137 2,300 484 Climbing Houston Center
Wed 04:51:56 PM 27.5822 -99.3650 39° Northeast 129 148 2,800 629 Climbing Houston Center
Wed 04:52:58 PM 27.6169 -99.3483 23° Northeast 133 153 3,600 435 Climbing Houston Center
Wed 04:53:00 PM 27.8393 -99.3666 16° North  Level Estimated
Wed 04:54:00 PM 27.8814 -99.3530 16° North  Level Estimated
Wed 04:54:00 PM 27.6578 -99.3386 12° North 141 162 3,700  Level Houston Center
Wed 04:55:02 PM 27.7058 -99.3211 18° North 147 169 3,600 -48 Descending Houston Center
Wed 04:56:04 PM 27.7489 -99.3147 North 151 174 3,600  Level Houston Center
Wed 04:57:06 PM 27.7917 -99.3072 North 153 176 3,600  Level Houston Center
Wed 04:58:08 PM 27.8331 -99.3000 North 153 176 3,600  Level Houston Center
Wed 04:59:11 PM 27.8736 -99.2911 11° North 150 173 3,600  Level Houston Center
Wed 05:00:13 PM 27.9150 -99.2786 15° North 150 173 3,600  Level Houston Center
Wed 05:01:15 PM 27.9564 -99.2675 13° North 152 175 3,600  Level Houston Center
Wed 05:02:17 PM 28.0064 -99.2561 11° North 152 175 3,600  Level Houston Center
Wed 05:03:19 PM 28.0469 -99.2442 15° North 151 174 3,600  Level Houston Center
Wed 05:04:21 PM 28.0892 -99.2339 12° North 153 176 3,600  Level Houston Center
Wed 05:05:23 PM 28.1306 -99.2231 13° North 153 176 3,600  Level Houston Center
Wed 05:06:25 PM 28.1706 -99.2125 13° North 150 173 3,600  Level Houston Center
Wed 05:07:28 PM 28.2194 -99.2017 11° North 149 171 3,600  Level Houston Center
Wed 05:08:30 PM 28.2597 -99.1906 14° North 149 171 3,600  Level Houston Center
Wed 05:09:32 PM 28.3000 -99.1803 13° North 149 171 3,600  Level Houston Center
Wed 05:10:34 PM 28.3400 -99.1703 12° North 148 170 3,600  Level Houston Center
Wed 05:11:36 PM 28.3806 -99.1611 11° North 148 170 3,600  Level Houston Center
Wed 05:12:38 PM 28.4214 -99.1500 13° North 149 171 3,600  Level Houston Center
Wed 05:13:40 PM 28.4708 -99.1372 13° North 150 173 3,600  Level Houston Center
Wed 05:14:42 PM 28.5106 -99.1253 15° North 149 171 3,600  Level Houston Center
Wed 05:15:44 PM 28.5497 -99.1117 17° North 148 170 3,600  Level Houston Center
Wed 05:16:47 PM 28.5894 -99.0989 16° North 148 170 3,600  Level Houston Center
Wed 05:17:49 PM 28.6300 -99.0856 16° North 149 171 3,600  Level Houston Center
Wed 05:18:51 PM 28.6708 -99.0728 15° North 151 174 3,600  Level Houston Center
Wed 05:19:53 PM 28.7192 -99.0578 15° North 151 174 3,600  Level Houston Center
Wed 05:20:55 PM 28.7603 -99.0494 10° North 150 173 3,600  Level Houston Center
Wed 05:21:57 PM 28.8014 -99.0361 16° North 152 175 3,600  Level Houston Center
Wed 05:22:59 PM 28.8428 -99.0236 15° North 153 176 3,600  Level Houston Center
Wed 05:24:01 PM 28.8831 -99.0097 17° North 152 175 3,600  Level Houston Center
Wed 05:25:03 PM 28.9328 -99.0011 North 152 175 3,600 480 Level Houston Center
Wed 05:26:06 PM 28.9675 -98.9931 11° North 152 175 4,600  Climbing Houston Center
Wed 05:27:08 PM 29.0164 -98.9772 16° North 149 171 3,600 -484 Descending Houston Center
Wed 05:28:10 PM 29.0561 -98.9683 11° North 146 168 3,600 -48 Level Houston Center
Wed 05:29:12 PM 29.0964 -98.9575 13° North 140 161 3,500 -97 Descending Houston Center

Login

Don't have an account? Register now (free) for customized features, flight alerts, and more!